aviador You're here:

LEVC Decoded Metar

VALENCIA in SPAIN
Report Time2015-08-04 11:30:00
UTC Time2015-08-04 11:40:35
Flight Rules vfr VFR
Wind080° at 06 kt
W.Decomp.*RWY 12: 4.7 kt HW 3.8 kt LCW
W.Rank080° ranks 2
Current wind is below 080° avg. (7.2)
Visibility9999 m
Phenomena:N/A
Clouds:Few 025 Hf
Expected CloudBase > 4,000 ft AGL from Temp-Dew spread
CeilingNone
Temp32°C (ISA +17)
Dew Point22°C (55% RH)
Heat Index35.6°C
QNH1015 hPa
Density Alt2,470 ft
Elevation203 ft
Report Wrong Elevation
Raw Report
METAR LEVC 041130Z 08006KT 020V150 9999 FEW025 32/22 Q1015 NOSIG=

Extra information for LEVC:More info

Metar Taf Metar & Taf Last 4 Metars F.Rules Stats Wind Profile Meteogram Temp Stats Airport Information Weather charts Add Link Nearby VenuesMetar ALERT Operation Metar Decoded Social comments

Webcam Valencia